createdAt,value
2022-09-02T00:01:28.589Z,48.97
2022-09-02T00:04:32.235Z,49.96
2022-09-02T00:07:34.457Z,49.32
2022-09-02T00:10:40.775Z,49.26
2022-09-02T00:13:43.504Z,48.92
2022-09-02T00:16:51.986Z,49.04
2022-09-02T00:19:56.284Z,49.99
2022-09-02T00:22:58.804Z,48.81
2022-09-02T00:26:00.904Z,48.69
2022-09-02T00:29:03.958Z,48.85
2022-09-02T00:32:06.558Z,49.38
2022-09-02T00:35:10.192Z,49.31
2022-09-02T00:38:13.125Z,49.28
2022-09-02T00:41:15.627Z,49.92
2022-09-02T00:44:20.068Z,49.19
2022-09-02T00:47:23.166Z,49.45
2022-09-02T00:50:30.484Z,49.14
2022-09-02T00:53:32.991Z,49.54
2022-09-02T00:56:39.426Z,49.56
2022-09-02T00:59:48.808Z,49.32
2022-09-02T01:03:00.856Z,49.42
2022-09-02T01:06:03.491Z,49.75
2022-09-02T01:09:13.329Z,49.81
2022-09-02T01:12:16.368Z,50.08
2022-09-02T01:15:18.674Z,49.45
2022-09-02T01:21:52.973Z,49.83
2022-09-02T01:25:00.598Z,49.63
2022-09-02T01:28:09.319Z,50.20
2022-09-02T01:31:11.400Z,50.64
2022-09-02T01:34:14.351Z,49.73
2022-09-02T01:37:17.143Z,49.83
2022-09-02T01:40:19.354Z,49.84
2022-09-02T01:43:25.059Z,49.87
2022-09-02T01:46:27.476Z,50.48
2022-09-02T01:49:29.719Z,51.11
2022-09-02T01:52:38.041Z,51.06
2022-09-02T01:55:40.389Z,51.13
2022-09-02T01:58:42.960Z,51.59
2022-09-02T02:01:46.207Z,51.00
2022-09-02T02:04:49.549Z,51.39
2022-09-02T02:07:52.314Z,51.40
2022-09-02T02:10:54.525Z,52.44
2022-09-02T02:13:58.191Z,52.16
2022-09-02T02:17:01.665Z,52.14
2022-09-02T02:20:05.366Z,52.42
2022-09-02T02:23:07.952Z,52.37
2022-09-02T02:26:10.126Z,52.17
2022-09-02T02:29:14.305Z,51.76
2022-09-02T02:32:18.594Z,52.21
2022-09-02T02:35:21.378Z,52.27
2022-09-02T02:38:24.910Z,52.58
2022-09-02T02:41:27.314Z,53.08
2022-09-02T02:44:29.764Z,52.69
2022-09-02T02:47:32.023Z,52.99
2022-09-02T02:50:34.237Z,53.16
2022-09-02T02:53:37.123Z,52.73
2022-09-02T02:56:39.815Z,52.48
2022-09-02T02:59:42.150Z,52.24
2022-09-02T03:02:47.268Z,51.38
2022-09-02T03:05:50.979Z,51.18
2022-09-02T03:08:53.946Z,52.24
2022-09-02T03:11:56.190Z,52.32
2022-09-02T03:14:58.606Z,51.72
2022-09-02T03:18:01.170Z,51.76
2022-09-02T03:21:08.435Z,51.42
2022-09-02T03:24:12.317Z,51.72
2022-09-02T03:27:14.634Z,52.03
2022-09-02T03:30:28.818Z,52.26
2022-09-02T03:33:32.512Z,51.79
2022-09-02T03:36:38.985Z,52.11
2022-09-02T03:39:42.525Z,52.26
2022-09-02T03:42:44.782Z,51.73
2022-09-02T03:45:49.234Z,52.21
2022-09-02T03:48:52.077Z,51.90
2022-09-02T03:51:55.449Z,51.72
2022-09-02T03:54:58.612Z,52.05
2022-09-02T03:58:05.439Z,52.28
2022-09-02T04:01:21.558Z,51.82
2022-09-02T04:04:24.361Z,52.39
2022-09-02T04:07:27.930Z,52.30
2022-09-02T04:10:30.462Z,51.84
2022-09-02T04:13:33.498Z,52.08
2022-09-02T04:16:37.059Z,51.59
2022-09-02T04:19:42.119Z,51.73
2022-09-02T04:22:44.491Z,51.58
2022-09-02T04:25:46.600Z,51.62
2022-09-02T04:28:51.375Z,51.90
2022-09-02T04:31:54.307Z,52.37
2022-09-02T04:34:58.155Z,52.59
2022-09-02T04:38:03.111Z,51.66
2022-09-02T04:41:08.585Z,53.02
2022-09-02T04:44:11.273Z,52.22
2022-09-02T04:47:16.720Z,51.72
2022-09-02T04:50:19.925Z,52.19
2022-09-02T04:53:34.123Z,52.12
2022-09-02T04:59:43.158Z,53.15
2022-09-02T05:02:47.409Z,52.09
2022-09-02T05:05:59.837Z,52.32
2022-09-02T05:09:04.390Z,52.48
2022-09-02T05:12:09.263Z,52.63
2022-09-02T05:15:20.065Z,52.06
2022-09-02T05:18:23.748Z,51.69
2022-09-02T05:21:26.485Z,51.81
2022-09-02T05:24:30.330Z,52.67
2022-09-02T05:27:37.077Z,52.15
2022-09-02T05:30:42.125Z,52.55
2022-09-02T05:33:45.599Z,52.88
2022-09-02T05:36:53.949Z,52.69
2022-09-02T05:39:56.408Z,52.27
2022-09-02T05:43:01.371Z,52.04
2022-09-02T05:46:07.156Z,52.59
2022-09-02T05:49:17.326Z,52.84
2022-09-02T05:52:24.508Z,51.92
2022-09-02T05:55:28.971Z,52.62
2022-09-02T05:58:32.460Z,53.23
2022-09-02T06:01:35.760Z,53.08
2022-09-02T06:04:41.244Z,53.66
2022-09-02T06:07:44.620Z,52.72
2022-09-02T06:10:47.297Z,53.02
2022-09-02T06:13:55.623Z,52.10
2022-09-02T06:16:59.853Z,52.96
2022-09-02T06:20:09.430Z,52.28
2022-09-02T06:23:16.250Z,53.22
2022-09-02T06:26:19.066Z,52.22
2022-09-02T06:29:23.721Z,52.94
2022-09-02T06:32:25.845Z,53.52
2022-09-02T06:35:38.110Z,53.29
2022-09-02T06:38:45.944Z,53.60
2022-09-02T06:41:49.365Z,52.72
2022-09-02T06:44:53.668Z,52.80
2022-09-02T06:47:56.782Z,52.60
2022-09-02T06:50:59.090Z,52.49
2022-09-02T06:54:04.405Z,53.13
2022-09-02T06:57:09.011Z,52.05
2022-09-02T07:00:13.044Z,52.79
2022-09-02T07:03:35.294Z,52.01
2022-09-02T07:06:40.097Z,52.46
2022-09-02T07:09:42.819Z,52.23
2022-09-02T07:12:48.961Z,51.92
2022-09-02T07:15:52.640Z,52.77
2022-09-02T07:18:55.953Z,52.56
2022-09-02T07:21:58.290Z,52.81
2022-09-02T07:25:02.210Z,52.71
2022-09-02T07:28:06.057Z,53.33
2022-09-02T07:31:12.079Z,53.40
2022-09-02T07:34:16.546Z,53.18
2022-09-02T07:37:19.493Z,53.20
2022-09-02T07:40:23.872Z,53.80
2022-09-02T07:43:28.613Z,52.84
2022-09-02T07:46:32.404Z,53.18
2022-09-02T07:52:59.388Z,53.27
2022-09-02T07:56:05.775Z,53.38
2022-09-02T07:59:07.889Z,53.05
2022-09-02T08:02:10.247Z,53.66
2022-09-02T08:05:14.106Z,54.62
2022-09-02T08:08:20.467Z,54.75
2022-09-02T08:11:23.845Z,54.31
2022-09-02T08:14:28.922Z,54.39
2022-09-02T08:17:32.147Z,54.04
2022-09-02T08:20:35.182Z,54.12
2022-09-02T08:23:37.842Z,54.20
2022-09-02T08:26:40.611Z,53.90
2022-09-02T08:29:42.949Z,54.44
2022-09-02T08:32:45.062Z,53.47
2022-09-02T08:35:48.334Z,53.39
2022-09-02T08:38:50.556Z,53.76
2022-09-02T08:42:25.110Z,53.54
2022-09-02T08:45:37.840Z,53.53
2022-09-02T08:48:42.833Z,52.44
2022-09-02T08:51:53.247Z,52.94
2022-09-02T08:54:56.390Z,53.32
2022-09-02T08:57:58.931Z,52.30
2022-09-02T09:01:17.029Z,53.06
2022-09-02T09:04:37.896Z,53.45
2022-09-02T09:08:14.791Z,52.70
2022-09-02T09:11:48.008Z,55.07
2022-09-02T09:14:55.448Z,53.89
2022-09-02T09:18:08.709Z,53.56
2022-09-02T09:21:11.388Z,53.32
2022-09-02T09:24:28.436Z,53.49
2022-09-02T09:27:30.861Z,53.33
2022-09-02T09:30:33.068Z,51.95
2022-09-02T09:33:35.230Z,51.98
2022-09-02T09:36:54.557Z,51.66
2022-09-02T09:39:56.607Z,51.91
2022-09-02T09:46:32.535Z,51.60
2022-09-02T09:49:34.809Z,51.92
2022-09-02T09:52:38.178Z,51.79
2022-09-02T09:55:50.489Z,51.79
2022-09-02T09:58:52.921Z,51.04
2022-09-02T10:01:55.162Z,51.86
2022-09-02T10:05:17.781Z,51.20
2022-09-02T10:08:23.803Z,51.57
2022-09-02T10:11:28.626Z,50.99
2022-09-02T10:14:48.448Z,51.27
2022-09-02T10:17:59.783Z,51.25
2022-09-02T10:21:38.380Z,52.41
2022-09-02T10:24:42.979Z,51.95
2022-09-02T10:28:34.372Z,50.58
2022-09-02T10:32:01.369Z,51.43
2022-09-02T10:35:27.188Z,50.96
2022-09-02T10:38:47.705Z,51.56
2022-09-02T10:41:50.302Z,51.86
2022-09-02T10:45:04.554Z,50.94
2022-09-02T10:48:19.171Z,51.01
2022-09-02T10:51:33.527Z,50.14
2022-09-02T10:55:20.206Z,50.44
2022-09-02T10:58:47.114Z,50.19
2022-09-02T11:01:58.646Z,50.04
2022-09-02T11:05:07.577Z,49.72
2022-09-02T11:08:32.769Z,51.21
2022-09-02T11:12:00.109Z,51.12
2022-09-02T11:15:09.695Z,50.87
2022-09-02T11:18:32.639Z,50.99
2022-09-02T11:21:50.008Z,50.52
2022-09-02T11:25:31.452Z,50.86
2022-09-02T11:28:44.097Z,51.28
2022-09-02T11:31:52.494Z,50.70
2022-09-02T11:34:58.597Z,50.48
2022-09-02T11:38:22.463Z,50.87
2022-09-02T11:41:42.057Z,50.94
2022-09-02T11:45:13.244Z,50.71
2022-09-02T11:48:37.890Z,50.37
2022-09-02T11:51:48.753Z,50.86
2022-09-02T11:55:06.719Z,50.52
2022-09-02T11:58:12.027Z,50.50
2022-09-02T12:01:15.398Z,49.79
2022-09-02T12:07:49.769Z,50.52
2022-09-02T12:10:51.901Z,51.16
2022-09-02T12:13:53.990Z,50.98
2022-09-02T12:17:03.893Z,50.67
2022-09-02T12:20:09.751Z,50.17
2022-09-02T12:23:49.061Z,49.84
2022-09-02T12:26:51.716Z,49.72
2022-09-02T12:29:54.129Z,49.58
2022-09-02T12:33:05.222Z,49.40
2022-09-02T12:36:09.148Z,49.87
2022-09-02T12:39:23.797Z,50.08
2022-09-02T12:42:33.565Z,49.24
2022-09-02T12:45:43.878Z,49.98
2022-09-02T12:48:59.790Z,48.95
2022-09-02T12:52:03.975Z,49.26
2022-09-02T12:55:18.471Z,49.41
2022-09-02T12:58:22.663Z,49.70
2022-09-02T13:01:35.114Z,49.97
2022-09-02T13:04:49.359Z,50.44
2022-09-02T13:08:06.586Z,49.95
2022-09-02T13:11:33.397Z,49.50
2022-09-02T13:14:35.469Z,50.37
2022-09-02T13:18:13.089Z,50.14
2022-09-02T13:22:03.205Z,50.43
2022-09-02T13:25:07.931Z,49.61
2022-09-02T13:28:23.966Z,49.93
2022-09-02T13:31:27.983Z,49.88
2022-09-02T13:34:31.837Z,50.17
2022-09-02T13:37:43.482Z,50.10
2022-09-02T13:40:46.350Z,50.34
2022-09-02T13:44:06.254Z,49.77
2022-09-02T13:47:17.677Z,49.25
2022-09-02T13:50:23.285Z,49.74
2022-09-02T13:54:05.583Z,50.08
2022-09-02T13:56:53.868Z,49.33
2022-09-02T13:59:58.460Z,50.55
2022-09-02T14:03:05.319Z,51.25
2022-09-02T14:06:08.303Z,50.91
2022-09-02T14:09:26.845Z,49.80
2022-09-02T14:12:32.912Z,51.15
2022-09-02T14:15:35.758Z,51.06
2022-09-02T14:18:37.882Z,50.91
2022-09-02T14:21:49.473Z,51.28
2022-09-02T14:24:51.736Z,51.44
2022-09-02T14:27:56.405Z,50.49
2022-09-02T14:31:00.142Z,50.82
2022-09-02T14:34:02.501Z,50.66
2022-09-02T14:37:28.742Z,51.44
2022-09-02T14:40:43.535Z,50.91
2022-09-02T14:43:55.259Z,50.94
2022-09-02T14:47:01.613Z,52.11
2022-09-02T14:50:04.022Z,51.91
2022-09-02T14:53:09.370Z,51.78
2022-09-02T14:56:11.758Z,52.33
2022-09-02T14:59:14.079Z,51.79
2022-09-02T15:02:28.069Z,52.07
2022-09-02T15:05:30.122Z,51.99
2022-09-02T15:08:32.271Z,52.29
2022-09-02T15:11:34.610Z,51.83
2022-09-02T15:14:36.664Z,52.11
2022-09-02T15:17:38.727Z,52.07
2022-09-02T15:20:40.826Z,52.58
2022-09-02T15:23:45.735Z,52.27
2022-09-02T15:26:51.404Z,52.53
2022-09-02T15:29:53.517Z,52.59
2022-09-02T15:32:56.264Z,52.75
2022-09-02T15:36:09.717Z,52.75
2022-09-02T15:39:11.910Z,52.78
2022-09-02T15:42:14.974Z,52.92
2022-09-02T15:45:17.028Z,52.90
2022-09-02T15:48:19.067Z,53.02
2022-09-02T15:51:23.465Z,53.27
2022-09-02T15:54:25.627Z,53.79
2022-09-02T15:57:28.007Z,53.79
2022-09-02T16:00:35.146Z,53.14
2022-09-02T16:03:37.930Z,53.82
2022-09-02T16:06:42.479Z,54.06
2022-09-02T16:09:44.521Z,54.00
2022-09-02T16:12:48.494Z,54.25
2022-09-02T16:15:51.450Z,54.70
2022-09-02T16:18:54.437Z,54.87
2022-09-02T16:21:56.509Z,54.96
2022-09-02T16:24:58.605Z,54.87
2022-09-02T16:28:01.698Z,54.51
2022-09-02T16:31:05.534Z,54.14
2022-09-02T16:34:17.186Z,54.51
2022-09-02T16:37:19.547Z,54.90
2022-09-02T16:40:21.841Z,54.93
2022-09-02T16:43:24.855Z,54.84
2022-09-02T16:46:28.493Z,54.69
2022-09-02T16:49:32.090Z,54.34
2022-09-02T16:52:35.324Z,54.80
2022-09-02T16:55:42.167Z,54.57
2022-09-02T16:58:44.416Z,53.99
2022-09-02T17:01:46.740Z,54.14
2022-09-02T17:04:48.916Z,53.91
2022-09-02T17:07:52.510Z,53.52
2022-09-02T17:11:16.238Z,53.61
2022-09-02T17:14:18.878Z,52.78
2022-09-02T17:17:21.066Z,52.54
2022-09-02T17:20:24.124Z,52.92
2022-09-02T17:23:26.226Z,53.04
2022-09-02T17:26:31.408Z,52.23
2022-09-02T17:29:49.796Z,52.07
2022-09-02T17:32:56.365Z,52.84
2022-09-02T17:36:01.805Z,53.35
2022-09-02T17:39:09.775Z,53.38
2022-09-02T17:42:12.202Z,53.30
2022-09-02T17:45:14.387Z,53.26
2022-09-02T17:48:35.660Z,53.69
2022-09-02T17:51:40.044Z,53.43
2022-09-02T17:54:42.967Z,53.05
2022-09-02T17:58:03.277Z,52.83
2022-09-02T18:01:12.683Z,52.42
2022-09-02T18:04:26.611Z,53.07
2022-09-02T18:07:41.565Z,53.68
2022-09-02T18:10:57.455Z,53.33
2022-09-02T18:14:18.918Z,53.81
2022-09-02T18:18:03.769Z,53.33
2022-09-02T18:21:18.131Z,53.04
2022-09-02T18:25:04.002Z,52.67
2022-09-02T18:28:38.822Z,52.02
2022-09-02T18:32:08.420Z,52.95
2022-09-02T18:35:29.147Z,52.34
2022-09-02T18:38:48.920Z,53.12
2022-09-02T18:42:03.232Z,53.31
2022-09-02T18:45:26.738Z,53.64
2022-09-02T18:48:33.116Z,53.38
2022-09-02T18:51:41.138Z,53.52
2022-09-02T18:55:03.224Z,52.92
2022-09-02T18:58:18.174Z,53.26
2022-09-02T19:01:27.478Z,52.83
2022-09-02T19:04:33.241Z,53.22
2022-09-02T19:07:55.326Z,52.85
2022-09-02T19:11:08.890Z,53.23
2022-09-02T19:14:27.387Z,52.57
2022-09-02T19:17:29.582Z,52.93
2022-09-02T19:20:35.603Z,52.60
2022-09-02T19:23:37.970Z,52.37
2022-09-02T19:26:43.647Z,52.41
2022-09-02T19:29:56.380Z,53.03
2022-09-02T19:33:00.734Z,52.56
2022-09-02T19:36:03.209Z,53.84
2022-09-02T19:39:05.649Z,53.24
2022-09-02T19:42:07.792Z,53.66
2022-09-02T19:45:14.172Z,52.87
2022-09-02T19:48:20.068Z,52.87
2022-09-02T19:51:26.984Z,53.11
2022-09-02T19:54:29.569Z,53.04
2022-09-02T19:57:31.609Z,53.23
2022-09-02T20:00:33.933Z,52.92
2022-09-02T20:03:36.167Z,52.86
2022-09-02T20:06:38.414Z,52.69
2022-09-02T20:09:41.370Z,52.48
2022-09-02T20:12:43.673Z,52.17
2022-09-02T20:15:45.727Z,51.48
2022-09-02T20:18:49.614Z,51.57
2022-09-02T20:21:51.767Z,52.02
2022-09-02T20:24:55.164Z,53.13
2022-09-02T20:28:20.321Z,52.40
2022-09-02T20:32:08.799Z,52.37
2022-09-02T20:35:25.984Z,52.37
2022-09-02T20:38:54.016Z,52.22
2022-09-02T20:42:06.494Z,52.02
2022-09-02T20:45:50.028Z,52.30
2022-09-02T20:49:19.486Z,52.84
2022-09-02T20:52:42.998Z,52.86
2022-09-02T20:56:02.748Z,51.99
2022-09-02T20:59:22.997Z,52.39
2022-09-02T21:02:33.705Z,52.59
2022-09-02T21:05:41.503Z,52.84
2022-09-02T21:09:19.649Z,52.42
2022-09-02T21:12:41.034Z,52.71
2022-09-02T21:16:08.350Z,52.21
2022-09-02T21:19:22.712Z,52.63
2022-09-02T21:22:39.800Z,53.57
2022-09-02T21:26:11.262Z,53.18
2022-09-02T21:29:22.956Z,53.69
2022-09-02T21:32:33.794Z,53.67
2022-09-02T21:35:44.394Z,53.28
2022-09-02T21:38:48.028Z,53.10
2022-09-02T21:42:10.126Z,52.90
2022-09-02T21:45:23.216Z,52.77
2022-09-02T21:48:25.517Z,52.67
2022-09-02T21:51:37.218Z,52.62
2022-09-02T21:54:45.101Z,53.23
2022-09-02T21:58:06.498Z,53.07
2022-09-02T22:01:14.501Z,53.06
2022-09-02T22:04:41.949Z,53.51
2022-09-02T22:08:00.059Z,53.26
2022-09-02T22:11:33.288Z,53.01
2022-09-02T22:15:10.421Z,53.27
2022-09-02T22:18:24.834Z,53.35
2022-09-02T22:21:51.533Z,53.18
2022-09-02T22:24:55.398Z,53.13
2022-09-02T22:28:12.540Z,53.14
2022-09-02T22:31:18.810Z,53.35
2022-09-02T22:34:23.949Z,53.26
2022-09-02T22:37:40.265Z,53.52
2022-09-02T22:41:04.130Z,53.85
2022-09-02T22:44:18.550Z,53.35
2022-09-02T22:47:40.830Z,53.00
2022-09-02T22:51:08.091Z,53.35
2022-09-02T22:54:10.329Z,53.77
2022-09-02T22:57:12.687Z,54.08
2022-09-02T23:00:17.058Z,54.46
2022-09-02T23:03:54.512Z,54.08
2022-09-02T23:06:59.127Z,54.38
2022-09-02T23:10:02.261Z,54.30
2022-09-02T23:13:23.226Z,53.61
2022-09-02T23:17:03.822Z,54.10
2022-09-02T23:20:09.649Z,54.01
2022-09-02T23:23:14.785Z,53.70
2022-09-02T23:26:30.546Z,53.74
2022-09-02T23:29:34.288Z,53.90
2022-09-02T23:32:51.191Z,53.48
2022-09-02T23:36:35.345Z,53.58
2022-09-02T23:39:46.459Z,54.03
2022-09-02T23:42:49.905Z,54.22
2022-09-02T23:45:56.268Z,53.82
2022-09-02T23:49:15.152Z,54.06
2022-09-02T23:52:46.522Z,53.48
2022-09-02T23:55:58.442Z,53.81
2022-09-02T23:59:03.989Z,53.58
